Time;durP1;ratioP1;P1;durP2;ratioP2;P2;SDS_P1;SDS_P2;PMS_P1;PMS_P2;Temp;Humidity;BMP_temperature;BMP_pressure;BME280_temperature;BME280_humidity;BME280_pressure;Samples;Min_cycle;Max_cycle;Signal;HPM_P1;HPM_P2
2023/07/29 00:01:13;;;;;;;29.73;26.73;;;16.10;99.90;;;;;;4995304;28;20037;-77
2023/07/29 00:03:42;;;;;;;30.48;27.13;;;16.10;99.90;;;;;;5020989;28;20049;-78
2023/07/29 00:06:13;;;;;;;29.83;26.85;;;16.10;99.90;;;;;;5010024;28;20050;-77
2023/07/29 00:08:51;;;;;;;29.48;26.58;;;16.10;99.90;;;;;;5010631;28;20429;-77
2023/07/29 00:11:18;;;;;;;26.27;23.77;;;16.10;99.90;;;;;;5011039;28;20042;-77
2023/07/29 00:13:50;;;;;;;29.98;26.55;;;16.10;99.90;;;;;;5010510;28;20044;-77
2023/07/29 00:16:21;;;;;;;34.13;25.90;;;16.20;99.90;;;;;;5012424;28;20037;-77
2023/07/29 00:18:51;;;;;;;28.50;23.75;;;16.10;99.90;;;;;;5023848;28;20052;-77
2023/07/29 00:21:23;;;;;;;26.00;23.40;;;16.00;99.90;;;;;;5001778;28;20403;-78
2023/07/29 00:23:49;;;;;;;28.13;24.85;;;16.10;99.90;;;;;;4997126;28;20038;-77
2023/07/29 00:26:15;;;;;;;27.13;24.33;;;16.00;99.90;;;;;;5013734;28;20046;-77
2023/07/29 00:28:47;;;;;;;27.13;24.35;;;15.90;99.90;;;;;;5012178;28;20499;-77
2023/07/29 00:31:19;;;;;;;28.83;25.73;;;16.00;99.90;;;;;;4999405;28;20061;-77
2023/07/29 00:33:55;;;;;;;30.67;26.00;;;16.00;99.90;;;;;;5012383;28;20038;-77
2023/07/29 00:36:24;;;;;;;25.70;23.25;;;16.00;99.90;;;;;;5013154;28;20489;-77
2023/07/29 00:38:57;;;;;;;23.88;21.45;;;15.90;99.90;;;;;;5011913;28;20100;-77
2023/07/29 00:41:26;;;;;;;26.08;23.33;;;15.90;99.90;;;;;;5003047;28;20034;-76
2023/07/29 00:44:07;;;;;;;25.98;23.48;;;15.90;99.90;;;;;;4999017;28;20386;-76
2023/07/29 00:46:35;;;;;;;30.45;26.00;;;15.90;99.90;;;;;;4995459;28;20049;-77
2023/07/29 00:49:06;;;;;;;31.10;24.38;;;15.90;99.90;;;;;;4995259;28;20121;-77
2023/07/29 00:51:32;;;;;;;30.08;26.42;;;15.80;99.90;;;;;;5012694;28;20052;-77
2023/07/29 00:53:58;;;;;;;37.33;25.48;;;15.90;99.90;;;;;;5013222;28;20049;-77
2023/07/29 00:56:32;;;;;;;31.65;25.73;;;15.80;99.90;;;;;;5011447;28;20034;-77
2023/07/29 00:59:01;;;;;;;47.63;26.67;;;15.80;99.90;;;;;;5010488;28;20046;-75
2023/07/29 01:01:28;;;;;;;30.63;24.08;;;15.80;99.90;;;;;;4996525;28;20060;-76
2023/07/29 01:03:56;;;;;;;27.35;24.42;;;15.80;99.90;;;;;;5012733;28;20052;-77
2023/07/29 01:06:25;;;;;;;30.85;24.20;;;15.70;99.90;;;;;;5012366;28;20128;-77
2023/07/29 01:08:59;;;;;;;23.65;21.35;;;15.70;99.90;;;;;;5008484;28;20060;-77
2023/07/29 01:11:34;;;;;;;24.50;22.00;;;15.70;99.90;;;;;;4995799;28;20507;-77
2023/07/29 01:14:17;;;;;;;25.88;23.00;;;15.70;99.90;;;;;;4997783;28;20049;-77
2023/07/29 01:16:50;;;;;;;26.63;23.38;;;15.70;99.90;;;;;;5012071;28;20052;-77
2023/07/29 01:20:03;;;;;;;26.83;23.80;;;15.60;99.90;;;;;;4994714;28;20068;-77
2023/07/29 01:22:40;;;;;;;27.83;23.23;;;15.60;99.90;;;;;;4987933;28;20054;-77
2023/07/29 01:25:09;;;;;;;29.95;23.80;;;15.60;99.90;;;;;;4996184;28;20049;-77
2023/07/29 01:27:40;;;;;;;35.40;25.20;;;15.60;99.90;;;;;;4977700;28;20037;-76
2023/07/29 01:30:09;;;;;;;22.58;20.23;;;15.60;99.90;;;;;;4995196;28;20405;-77
2023/07/29 01:33:16;;;;;;;26.92;21.30;;;15.50;99.90;;;;;;4994099;28;20050;-77
2023/07/29 01:35:54;;;;;;;30.00;22.88;;;15.50;99.90;;;;;;4994004;28;20034;-77
2023/07/29 01:38:38;;;;;;;38.40;23.00;;;15.40;99.90;;;;;;4992643;28;20404;-76
2023/07/29 01:41:10;;;;;;;24.38;19.42;;;15.40;99.90;;;;;;4994994;28;20038;-77
2023/07/29 01:43:46;;;;;;;35.55;22.10;;;15.30;99.90;;;;;;5010730;28;20069;-77
2023/07/29 01:46:18;;;;;;;36.53;23.80;;;15.30;99.90;;;;;;4995489;28;20034;-76
2023/07/29 01:48:45;;;;;;;30.73;22.67;;;15.30;99.90;;;;;;4994230;28;20038;-77
2023/07/29 01:51:16;;;;;;;23.10;20.73;;;15.30;99.90;;;;;;5010772;28;20596;-77
2023/07/29 01:53:42;;;;;;;26.05;21.88;;;15.30;99.90;;;;;;5011858;28;20239;-77
2023/07/29 01:56:08;;;;;;;22.08;19.67;;;15.30;99.90;;;;;;5011584;28;20045;-77
2023/07/29 01:58:39;;;;;;;25.60;22.05;;;15.40;99.90;;;;;;5003576;28;20381;-77
2023/07/29 02:01:22;;;;;;;54.03;29.80;;;15.40;99.90;;;;;;4997938;28;20038;-77
2023/07/29 02:03:55;;;;;;;21.27;19.17;;;15.50;99.90;;;;;;4994811;28;20488;-77
2023/07/29 02:06:24;;;;;;;26.85;22.73;;;15.50;99.90;;;;;;5011159;28;20129;-77
2023/07/29 02:09:04;;;;;;;23.42;20.52;;;15.60;99.90;;;;;;5008589;28;20038;-76
2023/07/29 02:11:30;;;;;;;20.50;18.48;;;15.50;99.90;;;;;;4994722;28;20081;-77
2023/07/29 02:13:59;;;;;;;21.83;19.38;;;15.60;99.90;;;;;;5011193;28;20448;-77
2023/07/29 02:16:26;;;;;;;32.72;23.02;;;15.60;99.90;;;;;;5010862;28;20061;-77
2023/07/29 02:18:55;;;;;;;23.80;19.23;;;15.70;99.90;;;;;;5009471;28;20034;-77
2023/07/29 02:21:27;;;;;;;26.58;21.10;;;15.70;99.90;;;;;;5009079;28;20034;-77
2023/07/29 02:23:53;;;;;;;31.90;21.67;;;15.70;99.90;;;;;;4998125;28;20064;-77
2023/07/29 02:26:22;;;;;;;20.83;18.67;;;15.70;99.90;;;;;;5010310;28;20143;-77
2023/07/29 02:28:48;;;;;;;18.02;16.13;;;15.70;99.90;;;;;;4993502;28;20096;-77
2023/07/29 02:31:24;;;;;;;30.23;20.25;;;15.80;99.90;;;;;;5008495;28;20033;-77
2023/07/29 02:33:56;;;;;;;;;;;15.80;99.90;;;;;;5010660;28;20097;-77
2023/07/29 02:36:27;;;;;;;18.02;15.35;;;15.80;99.90;;;;;;4998436;28;19999;-77
2023/07/29 02:38:56;;;;;;;16.48;14.65;;;15.80;99.90;;;;;;4995075;28;20457;-77
2023/07/29 02:41:27;;;;;;;18.67;13.63;;;15.80;99.90;;;;;;4986735;28;20034;-77
2023/07/29 02:43:53;;;;;;;13.60;12.27;;;15.80;99.90;;;;;;4991164;28;20484;-77
2023/07/29 02:46:27;;;;;;;14.75;12.35;;;15.80;99.90;;;;;;4989464;28;20043;-77
2023/07/29 02:48:53;;;;;;;13.10;11.75;;;15.80;99.90;;;;;;4976584;28;20053;-77
2023/07/29 02:51:23;;;;;;;16.80;14.45;;;15.70;99.90;;;;;;4990773;28;20038;-77
2023/07/29 02:53:52;;;;;;;16.48;12.90;;;15.70;99.90;;;;;;4991077;28;20060;-77
2023/07/29 02:56:23;;;;;;;12.15;10.88;;;15.70;99.90;;;;;;4990089;28;20169;-77
2023/07/29 02:58:51;;;;;;;12.30;10.52;;;15.70;99.90;;;;;;4987955;28;20547;-77
2023/07/29 03:01:19;;;;;;;12.98;9.55;;;15.60;99.90;;;;;;4974189;28;20261;-77
2023/07/29 03:03:47;;;;;;;11.63;10.05;;;15.60;99.90;;;;;;4975220;28;20046;-77
2023/07/29 03:06:17;;;;;;;12.02;10.38;;;15.60;99.90;;;;;;4973029;28;20492;-77
2023/07/29 03:08:45;;;;;;;13.98;10.60;;;15.60;99.90;;;;;;4989828;28;20137;-76
2023/07/29 03:11:15;;;;;;;10.80;9.10;;;15.60;99.90;;;;;;4974940;28;20078;-77
2023/07/29 03:13:42;;;;;;;11.20;9.20;;;15.60;99.90;;;;;;4982596;28;20038;-76
2023/07/29 03:16:15;;;;;;;12.00;9.60;;;15.60;99.90;;;;;;4989422;28;20039;-77
2023/07/29 03:18:44;;;;;;;10.80;9.68;;;15.50;99.90;;;;;;4990179;28;20042;-77
2023/07/29 03:21:16;;;;;;;11.48;8.95;;;15.50;99.90;;;;;;4975142;28;20035;-76
2023/07/29 03:23:42;;;;;;;11.15;9.90;;;15.50;99.90;;;;;;4974205;28;20038;-77
2023/07/29 03:26:10;;;;;;;10.98;9.00;;;15.50;99.90;;;;;;4989439;28;20394;-77
2023/07/29 03:28:44;;;;;;;8.68;7.78;;;15.50;99.90;;;;;;4988840;28;20038;-76
2023/07/29 03:31:13;;;;;;;10.95;8.38;;;15.50;99.90;;;;;;4974489;28;20034;-76
2023/07/29 03:33:39;;;;;;;8.20;7.32;;;15.40;99.90;;;;;;4974869;28;20034;-76
2023/07/29 03:36:05;;;;;;;10.02;7.60;;;15.40;99.90;;;;;;4974486;28;20404;-77
2023/07/29 03:38:35;;;;;;;8.73;6.60;;;15.40;99.90;;;;;;4987558;28;20044;-77
2023/07/29 03:41:02;;;;;;;8.90;7.85;;;15.40;99.90;;;;;;4973443;28;20133;-77
2023/07/29 03:43:33;;;;;;;10.10;8.27;;;15.40;99.90;;;;;;4974690;28;20041;-77
2023/07/29 03:46:03;;;;;;;8.40;7.47;;;15.40;99.90;;;;;;4974295;28;20070;-77
2023/07/29 03:48:32;;;;;;;9.30;7.53;;;15.40;99.90;;;;;;4974362;28;20042;-77
2023/07/29 03:51:03;;;;;;;8.95;7.90;;;15.30;99.90;;;;;;4973921;28;20523;-77
2023/07/29 03:53:32;;;;;;;9.30;7.43;;;15.40;99.90;;;;;;4973327;28;20061;-77
2023/07/29 03:55:57;;;;;;;8.63;7.18;;;15.30;99.90;;;;;;4991243;28;20042;-77
2023/07/29 03:58:26;;;;;;;7.38;6.68;;;15.30;99.90;;;;;;4976671;28;20038;-77
2023/07/29 04:00:51;;;;;;;7.93;6.20;;;15.40;99.90;;;;;;5009614;28;20074;-77
2023/07/29 04:03:23;;;;;;;12.45;9.23;;;15.30;99.90;;;;;;4978682;28;20114;-77
2023/07/29 04:05:49;;;;;;;9.60;7.45;;;15.30;99.90;;;;;;4977125;28;20133;-77
2023/07/29 04:08:15;;;;;;;12.95;8.32;;;15.30;99.90;;;;;;4983231;28;20042;-77
2023/07/29 04:10:44;;;;;;;6.30;5.68;;;15.30;99.90;;;;;;4993775;28;20038;-77
2023/07/29 04:13:10;;;;;;;9.95;6.45;;;15.30;99.90;;;;;;4994301;28;20062;-77
2023/07/29 04:15:38;;;;;;;7.45;6.72;;;15.30;99.90;;;;;;4992404;28;20409;-77
2023/07/29 04:18:15;;;;;;;12.27;8.20;;;15.30;99.90;;;;;;4981687;28;20046;-76
2023/07/29 04:20:41;;;;;;;10.23;7.18;;;15.40;99.90;;;;;;4993922;28;20080;-77
2023/07/29 04:23:07;;;;;;;6.10;5.50;;;15.40;99.90;;;;;;4993928;28;20089;-76
2023/07/29 04:25:38;;;;;;;7.50;6.47;;;15.30;99.90;;;;;;4992769;28;20386;-77
2023/07/29 04:28:06;;;;;;;8.48;7.05;;;15.40;99.90;;;;;;4977429;28;20125;-77
2023/07/29 04:30:32;;;;;;;7.97;5.38;;;15.40;99.90;;;;;;4979621;28;20069;-77
2023/07/29 04:32:58;;;;;;;6.50;5.50;;;15.40;99.90;;;;;;4980835;28;20089;-77
2023/07/29 04:35:26;;;;;;;7.28;6.15;;;15.40;99.90;;;;;;4974045;28;20054;-77
2023/07/29 04:37:52;;;;;;;8.35;6.97;;;15.40;99.90;;;;;;4983559;28;20432;-77
2023/07/29 04:40:23;;;;;;;7.85;5.97;;;15.40;99.90;;;;;;4976329;28;20493;-77
2023/07/29 04:42:51;;;;;;;11.52;7.93;;;15.40;99.90;;;;;;4976922;28;20048;-77
2023/07/29 04:45:17;;;;;;;7.97;7.05;;;15.50;99.90;;;;;;4977870;28;20121;-77
2023/07/29 04:47:45;;;;;;;7.80;7.00;;;15.50;99.90;;;;;;4993407;28;20408;-77
2023/07/29 04:50:13;;;;;;;8.00;6.50;;;15.40;99.90;;;;;;4991474;28;20042;-76
2023/07/29 04:52:39;;;;;;;8.45;7.50;;;15.50;99.90;;;;;;4977135;28;20043;-77
2023/07/29 04:55:05;;;;;;;8.15;6.63;;;15.50;99.90;;;;;;4976408;28;20069;-77
2023/07/29 04:57:31;;;;;;;8.32;7.13;;;15.50;99.90;;;;;;4983779;28;20034;-77
2023/07/29 04:59:57;;;;;;;9.55;7.45;;;15.50;99.90;;;;;;4992354;28;20507;-77
2023/07/29 05:02:26;;;;;;;7.45;6.63;;;15.50;99.90;;;;;;4972618;28;20039;-77
2023/07/29 05:04:51;;;;;;;9.18;7.97;;;15.60;99.90;;;;;;4987974;28;20124;-77
2023/07/29 05:07:17;;;;;;;10.60;8.27;;;15.60;99.90;;;;;;4992907;28;20042;-77
2023/07/29 05:09:43;;;;;;;11.70;9.23;;;15.70;99.90;;;;;;4976467;28;20049;-77
2023/07/29 05:12:12;;;;;;;13.93;10.80;;;15.70;99.90;;;;;;4991658;28;20030;-76
2023/07/29 05:14:38;;;;;;;13.63;10.07;;;15.70;99.90;;;;;;4976535;28;20065;-77
2023/07/29 05:17:03;;;;;;;12.48;10.75;;;15.80;99.90;;;;;;4992058;28;20038;-77
2023/07/29 05:19:29;;;;;;;15.75;11.52;;;15.90;99.90;;;;;;5005099;28;20045;-77
2023/07/29 05:21:58;;;;;;;17.92;12.50;;;15.90;99.90;;;;;;4975743;28;20058;-77
2023/07/29 05:24:24;;;;;;;16.58;11.80;;;15.90;99.90;;;;;;5006248;23;20452;-75
2023/07/29 05:26:50;;;;;;;21.48;13.45;;;16.00;99.90;;;;;;4992413;28;20265;-75
2023/07/29 05:29:15;;;;;;;13.57;12.00;;;16.10;99.90;;;;;;5017081;28;20046;-75
2023/07/29 05:31:41;;;;;;;15.63;12.07;;;16.10;99.90;;;;;;5009280;28;20038;-75
2023/07/29 05:34:07;;;;;;;20.88;14.13;;;16.20;99.90;;;;;;5015839;28;20045;-75
2023/07/29 05:36:32;;;;;;;17.42;12.48;;;16.10;99.90;;;;;;4998882;28;20049;-75
2023/07/29 05:38:58;;;;;;;29.77;17.70;;;16.20;99.90;;;;;;4992388;28;20038;-75
2023/07/29 05:41:24;;;;;;;17.10;13.50;;;16.20;99.90;;;;;;4992623;28;20492;-75
2023/07/29 05:43:49;;;;;;;31.00;18.42;;;16.30;99.90;;;;;;4975562;28;20045;-76
2023/07/29 05:46:15;;;;;;;22.00;15.65;;;16.40;99.90;;;;;;5000105;28;20034;-76
2023/07/29 05:48:40;;;;;;;21.13;14.40;;;16.40;99.90;;;;;;4991972;28;20038;-75
2023/07/29 05:51:06;;;;;;;16.98;13.38;;;16.50;99.90;;;;;;4993390;28;20081;-75
2023/07/29 05:53:32;;;;;;;19.08;14.10;;;16.50;99.90;;;;;;4997460;28;20045;-75
2023/07/29 05:55:57;;;;;;;17.92;13.23;;;16.50;99.90;;;;;;4999893;28;20049;-76
2023/07/29 05:58:23;;;;;;;20.60;14.77;;;16.50;99.90;;;;;;4992138;28;20080;-76
2023/07/29 06:00:48;;;;;;;21.63;14.13;;;16.60;99.90;;;;;;4993255;28;20038;-75
2023/07/29 06:03:14;;;;;;;31.70;19.30;;;16.60;99.90;;;;;;4992389;28;20049;-75
2023/07/29 06:05:40;;;;;;;23.08;15.65;;;16.60;99.90;;;;;;4981607;28;20073;-75
2023/07/29 06:08:05;;;;;;;23.27;15.85;;;16.70;99.90;;;;;;4994153;28;20493;-77
2023/07/29 06:10:31;;;;;;;19.13;14.93;;;16.80;99.90;;;;;;4992024;28;20045;-75
2023/07/29 06:12:56;;;;;;;18.60;13.77;;;17.00;99.90;;;;;;4999286;28;20121;-75
2023/07/29 06:15:22;;;;;;;21.17;13.80;;;17.20;99.90;;;;;;4994996;28;20120;-76
2023/07/29 06:17:48;;;;;;;17.20;12.95;;;17.30;99.90;;;;;;4991584;28;20386;-75
2023/07/29 06:20:14;;;;;;;13.88;10.27;;;17.40;99.90;;;;;;4991385;28;20496;-75
2023/07/29 06:22:42;;;;;;;15.63;11.30;;;17.50;99.90;;;;;;4996666;28;20129;-76
2023/07/29 06:25:08;;;;;;;17.25;12.95;;;17.50;99.90;;;;;;4992559;28;20500;-76
2023/07/29 06:27:33;;;;;;;17.45;12.30;;;17.50;99.90;;;;;;4991555;28;20046;-75
2023/07/29 06:29:59;;;;;;;14.13;11.55;;;17.70;99.90;;;;;;4991178;28;20118;-76
2023/07/29 06:32:24;;;;;;;14.32;10.38;;;17.70;99.90;;;;;;4994350;28;20038;-75
2023/07/29 06:34:51;;;;;;;15.68;13.18;;;17.70;99.90;;;;;;4987058;28;20042;-76
2023/07/29 06:37:17;;;;;;;14.32;10.70;;;17.80;99.90;;;;;;5002800;28;20401;-76
2023/07/29 06:39:43;;;;;;;14.35;11.38;;;17.90;99.90;;;;;;5007604;28;20046;-74
2023/07/29 06:42:08;;;;;;;12.25;10.85;;;17.90;99.90;;;;;;4991964;28;20046;-75
2023/07/29 06:44:34;;;;;;;12.60;9.90;;;17.90;99.90;;;;;;4997433;28;20451;-73
2023/07/29 06:46:59;;;;;;;13.00;10.50;;;18.00;99.90;;;;;;4989709;28;20042;-74
2023/07/29 06:49:25;;;;;;;12.80;10.45;;;18.00;99.90;;;;;;4994645;28;20045;-74
2023/07/29 06:51:50;;;;;;;15.63;11.48;;;18.00;99.90;;;;;;4990759;28;20038;-75
2023/07/29 06:54:17;;;;;;;11.15;9.48;;;18.00;99.90;;;;;;5001181;28;20030;-74
2023/07/29 06:56:42;;;;;;;10.23;9.02;;;18.00;99.90;;;;;;4993480;28;20057;-74
2023/07/29 06:59:08;;;;;;;12.93;9.65;;;18.00;99.90;;;;;;4998311;28;20046;-75
2023/07/29 07:01:34;;;;;;;13.10;9.95;;;18.10;99.90;;;;;;4990749;28;20042;-75
2023/07/29 07:04:00;;;;;;;13.88;9.77;;;18.10;99.90;;;;;;4987766;28;20065;-75
2023/07/29 07:06:25;;;;;;;12.00;8.98;;;18.20;99.90;;;;;;4990270;28;20058;-75
2023/07/29 07:08:51;;;;;;;13.60;9.40;;;18.30;99.90;;;;;;4990350;28;20046;-75
2023/07/29 07:11:18;;;;;;;10.65;8.65;;;18.40;99.90;;;;;;4974646;28;20044;-75
2023/07/29 07:13:44;;;;;;;11.75;8.57;;;18.60;99.90;;;;;;4990899;28;20038;-75
2023/07/29 07:16:10;;;;;;;10.45;8.93;;;18.80;99.90;;;;;;4985862;28;20041;-75
2023/07/29 07:18:35;;;;;;;9.73;8.55;;;19.10;99.90;;;;;;4987046;28;20035;-75
2023/07/29 07:21:01;;;;;;;15.38;10.20;;;19.20;99.90;;;;;;4986496;28;20097;-74
2023/07/29 07:23:26;;;;;;;10.25;8.52;;;19.30;99.90;;;;;;4987320;28;20035;-75
2023/07/29 07:25:52;;;;;;;8.63;7.45;;;19.30;99.90;;;;;;4971562;28;20050;-75
2023/07/29 07:28:17;;;;;;;10.23;9.07;;;19.30;99.90;;;;;;4983099;28;20040;-75
2023/07/29 07:30:43;;;;;;;11.60;9.35;;;19.30;99.90;;;;;;4988465;28;20531;-75
2023/07/29 07:33:09;;;;;;;9.93;8.93;;;19.30;99.90;;;;;;5002572;28;20046;-75
2023/07/29 07:35:35;;;;;;;10.65;9.65;;;19.40;99.90;;;;;;5001089;28;20550;-75
2023/07/29 07:38:03;;;;;;;11.75;9.18;;;19.40;99.90;;;;;;4976033;28;20038;-76
2023/07/29 07:40:30;;;;;;;10.30;8.07;;;19.40;99.90;;;;;;4992766;28;20039;-74
2023/07/29 07:42:56;;;;;;;12.73;8.65;;;19.30;99.90;;;;;;4989159;28;20086;-75
2023/07/29 07:45:21;;;;;;;11.25;8.75;;;19.30;99.90;;;;;;4992633;28;20041;-74
2023/07/29 07:47:47;;;;;;;9.73;8.50;;;19.40;99.90;;;;;;4994143;28;20108;-75
2023/07/29 07:50:14;;;;;;;9.73;8.45;;;19.50;99.90;;;;;;4993678;28;20054;-75
2023/07/29 07:52:39;;;;;;;10.07;7.55;;;19.60;99.90;;;;;;4997535;28;20048;-74
2023/07/29 07:55:05;;;;;;;9.73;7.38;;;19.70;99.90;;;;;;5001763;28;20038;-77
2023/07/29 07:57:31;;;;;;;9.20;7.55;;;19.90;99.90;;;;;;4977145;28;20504;-76
2023/07/29 07:59:57;;;;;;;9.60;8.38;;;20.00;99.90;;;;;;4990597;28;20038;-78
2023/07/29 08:02:22;;;;;;;9.05;7.13;;;20.20;99.90;;;;;;4992467;28;20042;-79
2023/07/29 08:04:48;;;;;;;9.40;7.43;;;20.40;99.90;;;;;;4995742;28;20373;-79
2023/07/29 08:07:14;;;;;;;8.85;6.47;;;20.40;99.90;;;;;;4978110;28;20041;-77
2023/07/29 08:09:39;;;;;;;6.85;4.90;;;20.40;99.90;;;;;;4994284;28;20475;-75
2023/07/29 08:12:06;;;;;;;8.30;5.57;;;20.40;99.90;;;;;;5002059;28;20039;-76
2023/07/29 08:14:31;;;;;;;9.98;5.75;;;20.40;99.90;;;;;;4995902;28;20452;-76
2023/07/29 08:16:57;;;;;;;7.28;5.30;;;20.30;99.90;;;;;;4992735;28;20034;-76
2023/07/29 08:19:23;;;;;;;7.78;4.75;;;20.40;99.90;;;;;;4994027;28;20500;-75
2023/07/29 08:21:49;;;;;;;7.82;4.35;;;20.70;99.90;;;;;;4994111;28;20416;-75
2023/07/29 08:24:14;;;;;;;7.35;4.60;;;20.90;99.90;;;;;;4993757;28;20049;-76
2023/07/29 08:26:40;;;;;;;5.90;4.18;;;21.20;99.90;;;;;;4993589;28;20054;-76
2023/07/29 08:29:05;;;;;;;6.95;4.10;;;21.50;99.90;;;;;;4993671;28;20128;-76
2023/07/29 08:31:33;;;;;;;5.25;3.97;;;21.60;99.90;;;;;;4994148;28;20061;-76
2023/07/29 08:33:59;;;;;;;4.95;4.00;;;21.60;99.90;;;;;;5006713;28;20046;-75
2023/07/29 08:36:26;;;;;;;5.30;4.00;;;21.60;99.90;;;;;;5007758;28;20042;-76
2023/07/29 08:38:51;;;;;;;6.80;4.30;;;21.80;99.90;;;;;;4993000;28;20130;-75
2023/07/29 08:41:22;;;;;;;5.22;3.55;;;22.00;99.90;;;;;;4991715;28;20185;-75
2023/07/29 08:43:59;;;;;;;6.65;3.60;;;22.10;99.90;;;;;;4974458;28;20124;-75
2023/07/29 08:46:25;;;;;;;6.10;3.60;;;22.20;99.90;;;;;;4968724;28;20042;-76
2023/07/29 08:48:51;;;;;;;5.80;3.50;;;22.60;99.90;;;;;;4992437;28;20046;-76
2023/07/29 08:51:19;;;;;;;6.20;3.67;;;22.90;99.90;;;;;;4977012;28;20054;-76
2023/07/29 08:53:45;;;;;;;6.45;3.38;;;23.40;99.90;;;;;;4992631;28;20042;-76
2023/07/29 08:56:12;;;;;;;5.15;2.90;;;24.10;99.90;;;;;;4976205;28;20070;-76
2023/07/29 08:58:39;;;;;;;4.22;3.03;;;24.60;99.90;;;;;;4993162;28;20034;-76
2023/07/29 09:01:05;;;;;;;4.72;3.17;;;24.80;99.90;;;;;;4993543;28;20038;-76
2023/07/29 09:03:31;;;;;;;6.57;3.13;;;24.80;99.90;;;;;;4993088;28;20038;-76
2023/07/29 09:05:58;;;;;;;7.53;3.58;;;24.40;99.90;;;;;;4992974;28;20038;-76
2023/07/29 09:08:28;;;;;;;5.55;3.28;;;23.90;99.90;;;;;;4992722;28;20039;-76
2023/07/29 09:10:55;;;;;;;7.03;3.60;;;23.50;99.90;;;;;;4990349;28;20397;-75
2023/07/29 09:13:21;;;;;;;5.97;3.47;;;23.50;99.90;;;;;;4991855;28;20089;-76
2023/07/29 09:15:47;;;;;;;4.55;3.25;;;23.90;99.90;;;;;;4991670;28;20042;-75
2023/07/29 09:18:16;;;;;;;5.95;3.50;;;24.00;99.90;;;;;;4992789;28;20057;-77
2023/07/29 09:20:42;;;;;;;5.28;3.42;;;24.20;99.90;;;;;;4983649;28;20046;-75
2023/07/29 09:23:12;;;;;;;3.95;3.25;;;24.70;99.90;;;;;;4991327;28;20034;-76
2023/07/29 09:25:39;;;;;;;6.10;3.17;;;24.90;99.90;;;;;;4991396;28;20552;-75
2023/07/29 09:28:10;;;;;;;5.28;2.80;;;24.80;99.90;;;;;;4973694;28;20125;-76
2023/07/29 09:30:40;;;;;;;5.15;2.97;;;24.70;99.90;;;;;;4979709;28;20042;-76
2023/07/29 09:33:06;;;;;;;6.30;3.00;;;24.40;99.90;;;;;;4992843;28;20074;-76
2023/07/29 09:35:33;;;;;;;5.63;3.08;;;24.10;99.90;;;;;;4991895;28;20074;-75
2023/07/29 09:37:59;;;;;;;8.07;3.10;;;23.80;99.90;;;;;;4983414;28;20515;-76
2023/07/29 09:40:25;;;;;;;5.50;2.72;;;23.60;99.90;;;;;;4985364;28;20035;-75
2023/07/29 09:42:55;;;;;;;6.07;3.13;;;23.30;99.90;;;;;;4988949;28;20096;-75
2023/07/29 09:45:26;;;;;;;6.70;3.25;;;23.00;99.90;;;;;;4991385;28;20045;-75
2023/07/29 09:47:53;;;;;;;6.30;3.50;;;22.70;99.90;;;;;;4992024;28;20516;-76
2023/07/29 09:50:23;;;;;;;4.32;3.28;;;22.60;99.90;;;;;;4987547;28;20508;-75
2023/07/29 09:52:49;;;;;;;7.22;3.80;;;22.80;99.90;;;;;;4991355;28;20034;-75
2023/07/29 09:55:24;;;;;;;4.45;3.40;;;23.00;99.90;;;;;;4989396;28;20490;-76
2023/07/29 09:57:54;;;;;;;5.60;3.80;;;23.20;99.90;;;;;;5003111;28;20477;-75
2023/07/29 10:00:20;;;;;;;4.10;3.28;;;23.40;99.90;;;;;;4985155;28;20058;-75
2023/07/29 10:02:46;;;;;;;5.15;3.38;;;23.60;99.90;;;;;;4974053;28;20049;-76
2023/07/29 10:05:12;;;;;;;3.83;3.40;;;23.60;99.90;;;;;;4984541;28;20568;-76
2023/07/29 10:07:39;;;;;;;4.53;3.20;;;23.50;99.90;;;;;;4991884;28;20042;-76
2023/07/29 10:10:06;;;;;;;3.67;3.00;;;23.40;99.90;;;;;;4989808;28;20046;-75
2023/07/29 10:12:32;;;;;;;4.00;3.10;;;23.60;99.90;;;;;;4994944;28;20188;-76
2023/07/29 10:15:04;;;;;;;11.50;3.95;;;24.20;99.90;;;;;;4991797;28;20060;-77
2023/07/29 10:17:33;;;;;;;4.47;3.37;;;24.70;99.90;;;;;;4990080;28;20046;-75
2023/07/29 10:19:59;;;;;;;5.50;3.22;;;24.60;99.90;;;;;;4988405;28;20065;-76
2023/07/29 10:22:32;;;;;;;4.22;3.08;;;24.40;99.90;;;;;;4994828;28;20030;-76
2023/07/29 10:25:06;;;;;;;3.83;3.00;;;24.50;99.90;;;;;;4999789;28;20042;-75
2023/07/29 10:27:41;;;;;;;4.63;3.67;;;24.90;99.90;;;;;;4999499;28;20069;-76
2023/07/29 10:30:08;;;;;;;4.80;3.92;;;25.20;99.90;;;;;;4991702;28;20050;-77
2023/07/29 10:32:34;;;;;;;6.07;3.83;;;25.20;99.90;;;;;;5011232;28;20395;-76
2023/07/29 10:35:00;;;;;;;4.20;3.80;;;25.00;99.90;;;;;;5011200;28;20038;-76
2023/07/29 10:37:26;;;;;;;5.82;4.10;;;24.70;99.90;;;;;;5000100;28;20101;-76
2023/07/29 10:39:56;;;;;;;5.00;3.95;;;24.20;99.90;;;;;;4992940;28;20497;-78
2023/07/29 10:42:22;;;;;;;4.85;3.65;;;23.80;99.90;;;;;;4993917;28;20042;-77
2023/07/29 10:44:49;;;;;;;5.03;3.65;;;23.40;99.90;;;;;;4996718;28;20041;-76
2023/07/29 10:47:17;;;;;;;5.40;3.42;;;23.20;99.90;;;;;;4988742;28;20081;-77
2023/07/29 10:49:43;;;;;;;6.10;3.88;;;23.10;99.90;;;;;;4990467;28;20584;-76
2023/07/29 10:52:28;;;;;;;5.50;3.58;;;23.00;99.90;;;;;;4998857;28;20034;-77
2023/07/29 10:54:54;;;;;;;6.90;3.42;;;23.00;99.90;;;;;;4990211;28;20041;-76
2023/07/29 10:57:38;;;;;;;9.07;3.83;;;23.00;99.90;;;;;;4972606;28;20481;-77
2023/07/29 11:00:05;;;;;;;5.88;4.25;;;23.10;99.90;;;;;;4985116;28;20065;-76
2023/07/29 11:02:32;;;;;;;5.55;3.47;;;23.30;99.90;;;;;;4995980;28;20058;-76
2023/07/29 11:05:04;;;;;;;5.97;3.60;;;23.40;99.90;;;;;;4994296;28;20034;-77
2023/07/29 11:07:29;;;;;;;6.43;3.40;;;23.50;99.90;;;;;;4999058;28;20038;-78
2023/07/29 11:10:00;;;;;;;6.82;3.67;;;23.50;99.90;;;;;;4991001;28;20050;-76
2023/07/29 11:12:45;;;;;;;5.53;2.90;;;23.40;99.90;;;;;;4990762;28;20030;-78
2023/07/29 11:15:12;;;;;;;4.88;2.72;;;23.10;99.90;;;;;;4989328;28;20444;-77
2023/07/29 11:17:47;;;;;;;6.38;2.50;;;23.10;99.90;;;;;;4987389;28;20066;-80
2023/07/29 11:20:14;;;;;;;3.63;2.28;;;23.50;99.90;;;;;;4980812;28;20093;-81
2023/07/29 11:22:40;;;;;;;5.53;2.75;;;23.70;99.90;;;;;;4990700;28;20166;-78
2023/07/29 11:25:09;;;;;;;4.15;2.53;;;23.60;99.90;;;;;;4983579;28;20042;-78
2023/07/29 11:27:35;;;;;;;3.83;2.30;;;23.40;99.90;;;;;;4991777;28;20109;-77
2023/07/29 11:30:05;;;;;;;4.50;2.80;;;23.30;99.90;;;;;;4989467;28;20041;-78
2023/07/29 11:32:31;;;;;;;4.30;2.25;;;23.60;99.90;;;;;;4982164;28;20056;-77
2023/07/29 11:34:56;;;;;;;3.70;2.30;;;24.10;99.90;;;;;;4995602;28;20489;-78
2023/07/29 11:37:22;;;;;;;5.45;2.40;;;24.60;99.90;;;;;;4964966;28;20077;-78
2023/07/29 11:39:48;;;;;;;4.45;2.63;;;25.00;99.90;;;;;;4997680;28;20041;-77
2023/07/29 11:42:16;;;;;;;4.78;2.42;;;25.60;99.90;;;;;;4992520;28;20049;-78
2023/07/29 11:44:42;;;;;;;5.25;2.40;;;26.00;99.90;;;;;;4991349;28;20046;-78
2023/07/29 11:47:09;;;;;;;3.30;2.53;;;25.90;99.90;;;;;;4991753;28;20042;-78
2023/07/29 11:49:36;;;;;;;3.58;2.53;;;25.70;99.90;;;;;;4988074;28;20097;-77
2023/07/29 11:52:07;;;;;;;4.55;2.30;;;25.70;99.90;;;;;;4991806;28;20038;-78
2023/07/29 11:54:33;;;;;;;3.80;2.30;;;26.20;99.90;;;;;;4991763;28;20405;-78
2023/07/29 11:56:59;;;;;;;4.60;2.30;;;26.60;99.90;;;;;;4990826;28;20031;-77
2023/07/29 11:59:24;;;;;;;3.88;2.10;;;27.00;99.90;;;;;;4988216;28;20424;-78
2023/07/29 12:01:50;;;;;;;4.75;2.55;;;27.10;99.90;;;;;;5006807;28;20038;-77
2023/07/29 12:04:16;;;;;;;5.72;2.55;;;27.10;99.90;;;;;;5015739;28;20101;-77
2023/07/29 12:06:42;;;;;;;4.32;2.03;;;26.80;99.90;;;;;;4997372;28;20038;-77
2023/07/29 12:09:09;;;;;;;3.45;2.00;;;26.50;99.90;;;;;;4991085;28;20116;-79
2023/07/29 12:11:34;;;;;;;5.00;2.20;;;26.20;99.90;;;;;;4997225;28;20047;-77
2023/07/29 12:14:00;;;;;;;6.38;2.50;;;26.20;99.90;;;;;;4990082;28;20085;-77
2023/07/29 12:16:26;;;;;;;7.25;2.45;;;26.40;99.90;;;;;;4991348;28;20366;-77
2023/07/29 12:18:52;;;;;;;7.38;2.20;;;26.70;99.90;;;;;;4993515;28;20045;-77
2023/07/29 12:21:19;;;;;;;5.03;2.22;;;27.00;99.90;;;;;;5002024;28;20038;-77
2023/07/29 12:23:45;;;;;;;3.55;2.10;;;27.30;99.90;;;;;;4977669;28;20096;-77
2023/07/29 12:26:10;;;;;;;4.05;2.20;;;27.40;99.90;;;;;;4993498;28;20039;-77
2023/07/29 12:28:36;;;;;;;6.47;2.20;;;27.30;99.90;;;;;;4993904;28;20042;-76
2023/07/29 12:31:07;;;;;;;4.72;2.33;;;27.10;99.90;;;;;;4998475;28;20064;-77
2023/07/29 12:33:35;;;;;;;5.35;2.65;;;26.70;99.90;;;;;;4992465;28;20047;-76
2023/07/29 12:36:01;;;;;;;5.65;2.50;;;26.10;99.90;;;;;;4993414;28;20074;-76
2023/07/29 12:38:27;;;;;;;4.07;2.40;;;25.60;99.90;;;;;;5009358;28;20034;-76
2023/07/29 12:40:52;;;;;;;6.00;2.63;;;25.20;99.90;;;;;;4993240;28;20521;-76
2023/07/29 12:43:18;;;;;;;18.23;5.30;;;24.80;99.90;;;;;;4977423;28;20038;-77